sensor_id;sensor_type;location;lat;lon;timestamp;P1;durP1;ratioP1;P2;durP2;ratioP2
64500;SDS011;50874;24.150;-110.320;2023-02-03T00:01:46;9.02;;;3.70;;
64500;SDS011;50874;24.150;-110.320;2023-02-03T00:04:12;21.45;;;2.05;;
64500;SDS011;50874;24.150;-110.320;2023-02-03T00:06:39;9.30;;;1.70;;
64500;SDS011;50874;24.150;-110.320;2023-02-03T00:09:05;22.83;;;1.85;;
64500;SDS011;50874;24.150;-110.320;2023-02-03T00:11:32;8.27;;;2.28;;
64500;SDS011;50874;24.150;-110.320;2023-02-03T00:13:58;9.40;;;2.53;;
64500;SDS011;50874;24.150;-110.320;2023-02-03T00:16:25;11.02;;;2.22;;
64500;SDS011;50874;24.150;-110.320;2023-02-03T00:18:51;13.75;;;2.40;;
64500;SDS011;50874;24.150;-110.320;2023-02-03T00:21:18;18.75;;;1.92;;
64500;SDS011;50874;24.150;-110.320;2023-02-03T00:23:44;5.43;;;2.33;;
64500;SDS011;50874;24.150;-110.320;2023-02-03T00:26:12;10.95;;;2.33;;
64500;SDS011;50874;24.150;-110.320;2023-02-03T00:28:40;4.70;;;1.55;;
64500;SDS011;50874;24.150;-110.320;2023-02-03T00:31:14;8.00;;;2.08;;
64500;SDS011;50874;24.150;-110.320;2023-02-03T00:33:41;13.25;;;2.08;;
64500;SDS011;50874;24.150;-110.320;2023-02-03T00:36:08;14.73;;;2.90;;
64500;SDS011;50874;24.150;-110.320;2023-02-03T00:38:35;16.08;;;1.90;;
64500;SDS011;50874;24.150;-110.320;2023-02-03T00:41:01;14.82;;;3.35;;
64500;SDS011;50874;24.150;-110.320;2023-02-03T00:43:28;7.20;;;2.78;;
64500;SDS011;50874;24.150;-110.320;2023-02-03T00:45:54;19.63;;;2.42;;
64500;SDS011;50874;24.150;-110.320;2023-02-03T00:48:21;13.38;;;2.40;;
64500;SDS011;50874;24.150;-110.320;2023-02-03T00:50:47;6.80;;;1.85;;
64500;SDS011;50874;24.150;-110.320;2023-02-03T00:53:14;11.98;;;3.40;;
64500;SDS011;50874;24.150;-110.320;2023-02-03T00:55:43;7.25;;;1.80;;
64500;SDS011;50874;24.150;-110.320;2023-02-03T00:58:09;14.77;;;2.78;;
64500;SDS011;50874;24.150;-110.320;2023-02-03T01:00:36;23.02;;;4.22;;
64500;SDS011;50874;24.150;-110.320;2023-02-03T01:03:03;12.48;;;3.30;;
64500;SDS011;50874;24.150;-110.320;2023-02-03T01:05:29;10.00;;;2.63;;
64500;SDS011;50874;24.150;-110.320;2023-02-03T01:07:56;19.27;;;2.90;;
64500;SDS011;50874;24.150;-110.320;2023-02-03T01:10:22;16.42;;;2.90;;
64500;SDS011;50874;24.150;-110.320;2023-02-03T01:12:49;9.32;;;1.70;;
64500;SDS011;50874;24.150;-110.320;2023-02-03T01:15:15;5.85;;;1.60;;
64500;SDS011;50874;24.150;-110.320;2023-02-03T01:17:42;11.82;;;2.42;;
64500;SDS011;50874;24.150;-110.320;2023-02-03T01:20:08;11.73;;;1.48;;
64500;SDS011;50874;24.150;-110.320;2023-02-03T01:22:40;14.18;;;2.63;;
64500;SDS011;50874;24.150;-110.320;2023-02-03T01:25:07;10.80;;;1.90;;
64500;SDS011;50874;24.150;-110.320;2023-02-03T01:27:33;12.75;;;3.78;;
64500;SDS011;50874;24.150;-110.320;2023-02-03T01:30:00;7.88;;;1.55;;
64500;SDS011;50874;24.150;-110.320;2023-02-03T01:32:26;8.48;;;1.38;;
64500;SDS011;50874;24.150;-110.320;2023-02-03T01:34:53;11.82;;;2.63;;
64500;SDS011;50874;24.150;-110.320;2023-02-03T01:37:19;16.17;;;2.45;;
64500;SDS011;50874;24.150;-110.320;2023-02-03T01:39:46;15.15;;;1.88;;
64500;SDS011;50874;24.150;-110.320;2023-02-03T01:42:12;16.60;;;3.40;;
64500;SDS011;50874;24.150;-110.320;2023-02-03T01:50:16;12.40;;;2.30;;
64500;SDS011;50874;24.150;-110.320;2023-02-03T01:52:53;17.77;;;2.90;;
64500;SDS011;50874;24.150;-110.320;2023-02-03T01:55:25;20.67;;;2.58;;
64500;SDS011;50874;24.150;-110.320;2023-02-03T01:57:59;17.02;;;3.95;;
64500;SDS011;50874;24.150;-110.320;2023-02-03T02:00:32;10.93;;;2.65;;
64500;SDS011;50874;24.150;-110.320;2023-02-03T02:02:59;27.08;;;3.13;;
64500;SDS011;50874;24.150;-110.320;2023-02-03T02:05:33;9.90;;;1.70;;
64500;SDS011;50874;24.150;-110.320;2023-02-03T02:08:07;15.40;;;2.65;;
64500;SDS011;50874;24.150;-110.320;2023-02-03T02:10:35;13.43;;;3.55;;
64500;SDS011;50874;24.150;-110.320;2023-02-03T02:13:02;13.38;;;2.00;;
64500;SDS011;50874;24.150;-110.320;2023-02-03T02:15:42;18.73;;;3.83;;
64500;SDS011;50874;24.150;-110.320;2023-02-03T02:32:17;13.10;;;3.60;;
64500;SDS011;50874;24.150;-110.320;2023-02-03T02:35:03;11.15;;;2.33;;
64500;SDS011;50874;24.150;-110.320;2023-02-03T02:37:57;10.95;;;2.55;;
64500;SDS011;50874;24.150;-110.320;2023-02-03T02:46:27;12.10;;;3.10;;
64500;SDS011;50874;24.150;-110.320;2023-02-03T02:49:02;13.35;;;3.80;;
64500;SDS011;50874;24.150;-110.320;2023-02-03T02:51:48;13.63;;;3.28;;
64500;SDS011;50874;24.150;-110.320;2023-02-03T02:54:17;8.95;;;2.33;;
64500;SDS011;50874;24.150;-110.320;2023-02-03T02:56:48;10.20;;;2.95;;
64500;SDS011;50874;24.150;-110.320;2023-02-03T02:59:19;13.13;;;2.17;;
64500;SDS011;50874;24.150;-110.320;2023-02-03T03:01:45;10.60;;;2.40;;
64500;SDS011;50874;24.150;-110.320;2023-02-03T03:04:12;12.85;;;2.13;;
64500;SDS011;50874;24.150;-110.320;2023-02-03T03:06:43;8.45;;;1.90;;
64500;SDS011;50874;24.150;-110.320;2023-02-03T03:09:25;20.85;;;3.00;;
64500;SDS011;50874;24.150;-110.320;2023-02-03T03:12:21;17.85;;;2.88;;
64500;SDS011;50874;24.150;-110.320;2023-02-03T03:14:50;14.15;;;2.22;;
64500;SDS011;50874;24.150;-110.320;2023-02-03T03:17:29;16.40;;;2.30;;
64500;SDS011;50874;24.150;-110.320;2023-02-03T03:20:00;12.95;;;3.03;;
64500;SDS011;50874;24.150;-110.320;2023-02-03T03:22:33;12.23;;;2.10;;
64500;SDS011;50874;24.150;-110.320;2023-02-03T03:25:05;12.00;;;2.20;;
64500;SDS011;50874;24.150;-110.320;2023-02-03T03:27:41;10.82;;;2.60;;
64500;SDS011;50874;24.150;-110.320;2023-02-03T03:30:22;18.15;;;3.55;;
64500;SDS011;50874;24.150;-110.320;2023-02-03T03:32:59;8.68;;;2.40;;
64500;SDS011;50874;24.150;-110.320;2023-02-03T03:35:29;14.95;;;2.95;;
64500;SDS011;50874;24.150;-110.320;2023-02-03T03:44:13;9.40;;;2.55;;
64500;SDS011;50874;24.150;-110.320;2023-02-03T03:46:44;21.42;;;2.92;;
64500;SDS011;50874;24.150;-110.320;2023-02-03T03:49:16;11.35;;;2.42;;
64500;SDS011;50874;24.150;-110.320;2023-02-03T03:51:47;11.30;;;2.95;;
64500;SDS011;50874;24.150;-110.320;2023-02-03T03:54:18;9.48;;;2.17;;
64500;SDS011;50874;24.150;-110.320;2023-02-03T03:59:21;8.98;;;2.08;;
64500;SDS011;50874;24.150;-110.320;2023-02-03T04:01:50;11.27;;;1.85;;
64500;SDS011;50874;24.150;-110.320;2023-02-03T04:04:17;7.50;;;1.90;;
64500;SDS011;50874;24.150;-110.320;2023-02-03T04:06:45;11.10;;;1.90;;
64500;SDS011;50874;24.150;-110.320;2023-02-03T04:09:11;8.07;;;1.83;;
64500;SDS011;50874;24.150;-110.320;2023-02-03T04:11:38;19.20;;;1.63;;
64500;SDS011;50874;24.150;-110.320;2023-02-03T04:14:22;11.43;;;1.92;;
64500;SDS011;50874;24.150;-110.320;2023-02-03T04:16:49;11.63;;;1.75;;
64500;SDS011;50874;24.150;-110.320;2023-02-03T04:19:15;11.13;;;1.67;;
64500;SDS011;50874;24.150;-110.320;2023-02-03T04:21:42;9.10;;;2.08;;
64500;SDS011;50874;24.150;-110.320;2023-02-03T04:24:08;21.80;;;2.13;;
64500;SDS011;50874;24.150;-110.320;2023-02-03T04:26:36;12.82;;;2.22;;
64500;SDS011;50874;24.150;-110.320;2023-02-03T04:29:03;16.50;;;1.88;;
64500;SDS011;50874;24.150;-110.320;2023-02-03T04:31:29;12.85;;;1.88;;
64500;SDS011;50874;24.150;-110.320;2023-02-03T04:33:55;20.60;;;2.25;;
64500;SDS011;50874;24.150;-110.320;2023-02-03T04:36:22;9.65;;;1.52;;
64500;SDS011;50874;24.150;-110.320;2023-02-03T04:38:48;11.73;;;1.80;;
64500;SDS011;50874;24.150;-110.320;2023-02-03T04:41:15;16.52;;;1.85;;
64500;SDS011;50874;24.150;-110.320;2023-02-03T04:43:42;14.15;;;1.95;;
64500;SDS011;50874;24.150;-110.320;2023-02-03T04:46:09;9.25;;;1.55;;
64500;SDS011;50874;24.150;-110.320;2023-02-03T04:48:36;11.32;;;2.63;;
64500;SDS011;50874;24.150;-110.320;2023-02-03T04:51:03;12.18;;;1.90;;
64500;SDS011;50874;24.150;-110.320;2023-02-03T04:53:31;12.55;;;1.83;;
64500;SDS011;50874;24.150;-110.320;2023-02-03T04:55:58;7.70;;;1.60;;
64500;SDS011;50874;24.150;-110.320;2023-02-03T04:58:25;9.68;;;1.58;;
64500;SDS011;50874;24.150;-110.320;2023-02-03T05:00:52;9.45;;;1.45;;
64500;SDS011;50874;24.150;-110.320;2023-02-03T05:03:19;7.82;;;2.42;;
64500;SDS011;50874;24.150;-110.320;2023-02-03T05:05:46;7.00;;;1.20;;
64500;SDS011;50874;24.150;-110.320;2023-02-03T05:08:14;16.30;;;2.28;;
64500;SDS011;50874;24.150;-110.320;2023-02-03T05:10:40;7.25;;;1.77;;
64500;SDS011;50874;24.150;-110.320;2023-02-03T05:13:06;11.85;;;1.75;;
64500;SDS011;50874;24.150;-110.320;2023-02-03T05:15:33;10.50;;;1.92;;
64500;SDS011;50874;24.150;-110.320;2023-02-03T05:17:59;13.65;;;1.83;;
64500;SDS011;50874;24.150;-110.320;2023-02-03T05:20:26;11.23;;;1.60;;
64500;SDS011;50874;24.150;-110.320;2023-02-03T05:22:52;13.00;;;1.70;;
64500;SDS011;50874;24.150;-110.320;2023-02-03T05:25:19;7.88;;;1.48;;
64500;SDS011;50874;24.150;-110.320;2023-02-03T05:27:45;8.73;;;1.50;;
64500;SDS011;50874;24.150;-110.320;2023-02-03T05:30:12;8.90;;;1.35;;
64500;SDS011;50874;24.150;-110.320;2023-02-03T05:32:38;13.02;;;1.95;;
64500;SDS011;50874;24.150;-110.320;2023-02-03T05:35:05;10.82;;;1.88;;
64500;SDS011;50874;24.150;-110.320;2023-02-03T05:37:31;12.73;;;1.77;;
64500;SDS011;50874;24.150;-110.320;2023-02-03T05:39:58;11.27;;;2.38;;
64500;SDS011;50874;24.150;-110.320;2023-02-03T05:42:48;14.50;;;3.08;;
64500;SDS011;50874;24.150;-110.320;2023-02-03T05:45:15;15.95;;;2.38;;
64500;SDS011;50874;24.150;-110.320;2023-02-03T05:47:41;15.52;;;2.85;;
64500;SDS011;50874;24.150;-110.320;2023-02-03T05:50:08;13.00;;;1.70;;
64500;SDS011;50874;24.150;-110.320;2023-02-03T05:52:35;10.38;;;1.83;;
64500;SDS011;50874;24.150;-110.320;2023-02-03T05:55:01;15.80;;;2.33;;
64500;SDS011;50874;24.150;-110.320;2023-02-03T05:57:28;15.27;;;2.47;;
64500;SDS011;50874;24.150;-110.320;2023-02-03T05:59:54;7.95;;;2.05;;
64500;SDS011;50874;24.150;-110.320;2023-02-03T06:02:21;10.95;;;2.10;;
64500;SDS011;50874;24.150;-110.320;2023-02-03T06:04:47;7.90;;;1.60;;
64500;SDS011;50874;24.150;-110.320;2023-02-03T06:07:13;9.23;;;1.35;;
64500;SDS011;50874;24.150;-110.320;2023-02-03T06:09:40;14.18;;;2.38;;
64500;SDS011;50874;24.150;-110.320;2023-02-03T06:12:06;10.27;;;1.65;;
64500;SDS011;50874;24.150;-110.320;2023-02-03T06:14:33;11.95;;;1.35;;
64500;SDS011;50874;24.150;-110.320;2023-02-03T06:16:59;14.60;;;1.90;;
64500;SDS011;50874;24.150;-110.320;2023-02-03T06:19:25;20.35;;;1.70;;
64500;SDS011;50874;24.150;-110.320;2023-02-03T06:21:52;7.60;;;1.70;;
64500;SDS011;50874;24.150;-110.320;2023-02-03T06:24:18;12.32;;;2.28;;
64500;SDS011;50874;24.150;-110.320;2023-02-03T06:26:45;14.30;;;2.67;;
64500;SDS011;50874;24.150;-110.320;2023-02-03T06:29:12;12.20;;;2.03;;
64500;SDS011;50874;24.150;-110.320;2023-02-03T06:31:38;11.48;;;2.25;;
64500;SDS011;50874;24.150;-110.320;2023-02-03T06:34:04;9.52;;;2.13;;
64500;SDS011;50874;24.150;-110.320;2023-02-03T06:36:31;12.20;;;2.25;;
64500;SDS011;50874;24.150;-110.320;2023-02-03T06:38:57;9.85;;;1.75;;
64500;SDS011;50874;24.150;-110.320;2023-02-03T06:41:24;9.57;;;1.67;;
64500;SDS011;50874;24.150;-110.320;2023-02-03T06:43:55;9.20;;;1.80;;
64500;SDS011;50874;24.150;-110.320;2023-02-03T06:46:21;11.77;;;2.10;;
64500;SDS011;50874;24.150;-110.320;2023-02-03T06:48:52;10.85;;;1.65;;
64500;SDS011;50874;24.150;-110.320;2023-02-03T06:51:18;9.23;;;2.08;;
64500;SDS011;50874;24.150;-110.320;2023-02-03T06:53:45;9.73;;;1.90;;
64500;SDS011;50874;24.150;-110.320;2023-02-03T06:56:11;8.77;;;1.60;;
64500;SDS011;50874;24.150;-110.320;2023-02-03T06:58:38;15.05;;;2.22;;
64500;SDS011;50874;24.150;-110.320;2023-02-03T07:01:04;14.88;;;2.15;;
64500;SDS011;50874;24.150;-110.320;2023-02-03T07:03:31;12.85;;;1.30;;
64500;SDS011;50874;24.150;-110.320;2023-02-03T07:05:57;5.55;;;2.15;;
64500;SDS011;50874;24.150;-110.320;2023-02-03T07:08:23;7.72;;;1.55;;
64500;SDS011;50874;24.150;-110.320;2023-02-03T07:10:54;18.67;;;2.60;;
64500;SDS011;50874;24.150;-110.320;2023-02-03T07:13:20;10.68;;;2.13;;
64500;SDS011;50874;24.150;-110.320;2023-02-03T07:15:47;20.83;;;1.90;;
64500;SDS011;50874;24.150;-110.320;2023-02-03T07:18:13;15.68;;;2.28;;
64500;SDS011;50874;24.150;-110.320;2023-02-03T07:20:40;12.50;;;2.13;;
64500;SDS011;50874;24.150;-110.320;2023-02-03T07:23:06;10.48;;;2.70;;
64500;SDS011;50874;24.150;-110.320;2023-02-03T07:25:33;9.55;;;2.15;;
64500;SDS011;50874;24.150;-110.320;2023-02-03T07:28:00;9.65;;;1.92;;
64500;SDS011;50874;24.150;-110.320;2023-02-03T07:30:26;15.77;;;1.85;;
64500;SDS011;50874;24.150;-110.320;2023-02-03T07:32:52;11.40;;;1.98;;
64500;SDS011;50874;24.150;-110.320;2023-02-03T07:35:19;12.35;;;2.38;;
64500;SDS011;50874;24.150;-110.320;2023-02-03T07:37:46;12.07;;;1.77;;
64500;SDS011;50874;24.150;-110.320;2023-02-03T07:40:13;8.57;;;1.30;;
64500;SDS011;50874;24.150;-110.320;2023-02-03T07:42:40;7.38;;;1.33;;
64500;SDS011;50874;24.150;-110.320;2023-02-03T07:45:08;8.93;;;1.70;;
64500;SDS011;50874;24.150;-110.320;2023-02-03T07:47:36;10.48;;;2.22;;
64500;SDS011;50874;24.150;-110.320;2023-02-03T07:50:03;12.10;;;2.30;;
64500;SDS011;50874;24.150;-110.320;2023-02-03T07:52:30;9.05;;;1.92;;
64500;SDS011;50874;24.150;-110.320;2023-02-03T07:54:56;13.38;;;2.00;;
64500;SDS011;50874;24.150;-110.320;2023-02-03T07:57:23;11.90;;;2.53;;
64500;SDS011;50874;24.150;-110.320;2023-02-03T07:59:49;8.75;;;1.83;;
64500;SDS011;50874;24.150;-110.320;2023-02-03T08:02:16;6.72;;;2.20;;
64500;SDS011;50874;24.150;-110.320;2023-02-03T08:04:42;6.70;;;1.40;;
64500;SDS011;50874;24.150;-110.320;2023-02-03T08:07:08;12.40;;;1.65;;
64500;SDS011;50874;24.150;-110.320;2023-02-03T08:09:35;12.18;;;3.00;;
64500;SDS011;50874;24.150;-110.320;2023-02-03T08:12:01;11.50;;;2.90;;
64500;SDS011;50874;24.150;-110.320;2023-02-03T08:14:28;14.68;;;2.33;;
64500;SDS011;50874;24.150;-110.320;2023-02-03T08:16:55;11.82;;;2.22;;
64500;SDS011;50874;24.150;-110.320;2023-02-03T08:19:22;19.15;;;2.97;;
64500;SDS011;50874;24.150;-110.320;2023-02-03T08:21:48;18.20;;;2.55;;
64500;SDS011;50874;24.150;-110.320;2023-02-03T08:24:15;9.55;;;2.65;;
64500;SDS011;50874;24.150;-110.320;2023-02-03T08:26:42;12.35;;;2.38;;
64500;SDS011;50874;24.150;-110.320;2023-02-03T08:29:08;21.25;;;2.70;;
64500;SDS011;50874;24.150;-110.320;2023-02-03T08:31:35;6.40;;;1.88;;
64500;SDS011;50874;24.150;-110.320;2023-02-03T08:34:02;26.55;;;2.35;;
64500;SDS011;50874;24.150;-110.320;2023-02-03T08:36:29;10.60;;;2.03;;
64500;SDS011;50874;24.150;-110.320;2023-02-03T08:38:56;13.50;;;2.03;;
64500;SDS011;50874;24.150;-110.320;2023-02-03T08:41:22;9.95;;;2.92;;
64500;SDS011;50874;24.150;-110.320;2023-02-03T08:43:49;15.75;;;2.35;;
64500;SDS011;50874;24.150;-110.320;2023-02-03T08:46:15;10.52;;;2.53;;
64500;SDS011;50874;24.150;-110.320;2023-02-03T08:48:42;10.52;;;2.45;;
64500;SDS011;50874;24.150;-110.320;2023-02-03T08:51:12;13.43;;;2.38;;
64500;SDS011;50874;24.150;-110.320;2023-02-03T08:53:39;12.90;;;3.08;;
64500;SDS011;50874;24.150;-110.320;2023-02-03T08:56:07;13.50;;;2.13;;
64500;SDS011;50874;24.150;-110.320;2023-02-03T08:58:35;12.27;;;2.80;;
64500;SDS011;50874;24.150;-110.320;2023-02-03T09:01:06;16.65;;;2.60;;
64500;SDS011;50874;24.150;-110.320;2023-02-03T09:03:35;21.13;;;2.95;;
64500;SDS011;50874;24.150;-110.320;2023-02-03T09:06:02;14.95;;;2.47;;
64500;SDS011;50874;24.150;-110.320;2023-02-03T09:08:29;10.60;;;2.17;;
64500;SDS011;50874;24.150;-110.320;2023-02-03T09:10:56;11.73;;;3.00;;
64500;SDS011;50874;24.150;-110.320;2023-02-03T09:13:23;11.63;;;3.00;;
64500;SDS011;50874;24.150;-110.320;2023-02-03T09:15:49;13.70;;;2.20;;
64500;SDS011;50874;24.150;-110.320;2023-02-03T09:18:16;11.95;;;2.35;;
64500;SDS011;50874;24.150;-110.320;2023-02-03T09:20:42;12.15;;;2.10;;
64500;SDS011;50874;24.150;-110.320;2023-02-03T09:23:09;18.58;;;2.45;;
64500;SDS011;50874;24.150;-110.320;2023-02-03T09:25:35;17.20;;;2.35;;
64500;SDS011;50874;24.150;-110.320;2023-02-03T09:28:02;16.10;;;3.05;;
64500;SDS011;50874;24.150;-110.320;2023-02-03T09:30:29;25.05;;;2.83;;
64500;SDS011;50874;24.150;-110.320;2023-02-03T09:32:55;9.10;;;2.20;;
64500;SDS011;50874;24.150;-110.320;2023-02-03T09:35:23;8.32;;;2.00;;
64500;SDS011;50874;24.150;-110.320;2023-02-03T09:37:51;9.93;;;2.03;;
64500;SDS011;50874;24.150;-110.320;2023-02-03T09:40:26;20.13;;;2.97;;
64500;SDS011;50874;24.150;-110.320;2023-02-03T09:46:06;12.57;;;2.25;;
64500;SDS011;50874;24.150;-110.320;2023-02-03T09:48:47;19.90;;;2.72;;
64500;SDS011;50874;24.150;-110.320;2023-02-03T09:51:25;10.25;;;2.85;;
64500;SDS011;50874;24.150;-110.320;2023-02-03T09:59:52;10.70;;;2.05;;
64500;SDS011;50874;24.150;-110.320;2023-02-03T10:02:29;14.25;;;2.42;;
64500;SDS011;50874;24.150;-110.320;2023-02-03T10:18:53;12.77;;;2.42;;
64500;SDS011;50874;24.150;-110.320;2023-02-03T10:24:27;12.23;;;2.33;;
64500;SDS011;50874;24.150;-110.320;2023-02-03T10:27:01;13.07;;;2.25;;
64500;SDS011;50874;24.150;-110.320;2023-02-03T10:29:30;22.30;;;2.47;;
64500;SDS011;50874;24.150;-110.320;2023-02-03T10:32:04;16.02;;;2.13;;
64500;SDS011;50874;24.150;-110.320;2023-02-03T10:34:37;14.35;;;2.05;;
64500;SDS011;50874;24.150;-110.320;2023-02-03T10:37:19;14.13;;;2.33;;
64500;SDS011;50874;24.150;-110.320;2023-02-03T10:39:53;11.40;;;1.88;;
64500;SDS011;50874;24.150;-110.320;2023-02-03T10:42:20;19.35;;;3.28;;
64500;SDS011;50874;24.150;-110.320;2023-02-03T10:47:23;24.85;;;2.85;;
64500;SDS011;50874;24.150;-110.320;2023-02-03T10:50:03;12.23;;;2.30;;
64500;SDS011;50874;24.150;-110.320;2023-02-03T10:52:49;15.13;;;2.63;;
64500;SDS011;50874;24.150;-110.320;2023-02-03T10:57:52;14.38;;;3.50;;
64500;SDS011;50874;24.150;-110.320;2023-02-03T11:00:23;12.80;;;2.67;;
64500;SDS011;50874;24.150;-110.320;2023-02-03T11:05:35;11.85;;;3.08;;
64500;SDS011;50874;24.150;-110.320;2023-02-03T11:08:01;14.70;;;2.80;;
64500;SDS011;50874;24.150;-110.320;2023-02-03T11:10:30;13.15;;;3.22;;
64500;SDS011;50874;24.150;-110.320;2023-02-03T11:13:11;13.63;;;2.95;;
64500;SDS011;50874;24.150;-110.320;2023-02-03T11:21:39;23.40;;;3.30;;
64500;SDS011;50874;24.150;-110.320;2023-02-03T11:24:11;24.45;;;3.28;;
64500;SDS011;50874;24.150;-110.320;2023-02-03T11:29:35;13.38;;;3.17;;
64500;SDS011;50874;24.150;-110.320;2023-02-03T11:34:58;17.45;;;3.00;;
64500;SDS011;50874;24.150;-110.320;2023-02-03T11:37:38;23.75;;;3.15;;
64500;SDS011;50874;24.150;-110.320;2023-02-03T11:42:57;14.40;;;2.65;;
64500;SDS011;50874;24.150;-110.320;2023-02-03T11:45:31;19.95;;;2.83;;
64500;SDS011;50874;24.150;-110.320;2023-02-03T11:53:58;18.77;;;2.83;;
64500;SDS011;50874;24.150;-110.320;2023-02-03T12:02:03;17.30;;;3.17;;
64500;SDS011;50874;24.150;-110.320;2023-02-03T12:07:35;21.98;;;3.47;;
64500;SDS011;50874;24.150;-110.320;2023-02-03T12:13:09;25.52;;;2.83;;
64500;SDS011;50874;24.150;-110.320;2023-02-03T12:21:14;20.13;;;3.78;;
64500;SDS011;50874;24.150;-110.320;2023-02-03T12:27:09;26.42;;;3.95;;
64500;SDS011;50874;24.150;-110.320;2023-02-03T12:29:42;22.00;;;4.57;;
64500;SDS011;50874;24.150;-110.320;2023-02-03T12:34:58;19.63;;;3.72;;
64500;SDS011;50874;24.150;-110.320;2023-02-03T12:37:41;29.38;;;3.85;;
64500;SDS011;50874;24.150;-110.320;2023-02-03T12:40:21;19.08;;;3.50;;
64500;SDS011;50874;24.150;-110.320;2023-02-03T12:43:14;16.77;;;3.58;;
64500;SDS011;50874;24.150;-110.320;2023-02-03T12:46:18;22.73;;;3.05;;
64500;SDS011;50874;24.150;-110.320;2023-02-03T12:48:52;24.00;;;3.83;;
64500;SDS011;50874;24.150;-110.320;2023-02-03T12:54:30;21.20;;;3.55;;
64500;SDS011;50874;24.150;-110.320;2023-02-03T12:57:18;22.13;;;4.55;;
64500;SDS011;50874;24.150;-110.320;2023-02-03T13:02:27;28.20;;;4.43;;
64500;SDS011;50874;24.150;-110.320;2023-02-03T13:04:59;26.65;;;4.03;;
64500;SDS011;50874;24.150;-110.320;2023-02-03T13:07:37;29.67;;;4.70;;
64500;SDS011;50874;24.150;-110.320;2023-02-03T13:12:49;29.08;;;4.70;;
64500;SDS011;50874;24.150;-110.320;2023-02-03T13:18:14;27.67;;;4.28;;
64500;SDS011;50874;24.150;-110.320;2023-02-03T13:20:51;23.70;;;4.47;;
64500;SDS011;50874;24.150;-110.320;2023-02-03T13:23:18;25.95;;;4.03;;
64500;SDS011;50874;24.150;-110.320;2023-02-03T13:32:25;21.63;;;4.18;;
64500;SDS011;50874;24.150;-110.320;2023-02-03T13:43:11;25.60;;;4.45;;
64500;SDS011;50874;24.150;-110.320;2023-02-03T13:45:42;29.33;;;4.72;;
64500;SDS011;50874;24.150;-110.320;2023-02-03T13:48:20;25.75;;;3.92;;
64500;SDS011;50874;24.150;-110.320;2023-02-03T13:50:49;32.97;;;6.28;;
64500;SDS011;50874;24.150;-110.320;2023-02-03T13:53:27;29.90;;;5.22;;
64500;SDS011;50874;24.150;-110.320;2023-02-03T13:56:01;31.00;;;5.45;;
64500;SDS011;50874;24.150;-110.320;2023-02-03T13:58:31;36.95;;;4.90;;
64500;SDS011;50874;24.150;-110.320;2023-02-03T14:01:25;43.25;;;5.55;;
64500;SDS011;50874;24.150;-110.320;2023-02-03T14:03:54;25.00;;;4.38;;
64500;SDS011;50874;24.150;-110.320;2023-02-03T14:09:20;33.10;;;6.35;;
64500;SDS011;50874;24.150;-110.320;2023-02-03T14:11:51;35.20;;;5.20;;
64500;SDS011;50874;24.150;-110.320;2023-02-03T14:20:03;33.38;;;6.00;;
64500;SDS011;50874;24.150;-110.320;2023-02-03T14:25:22;30.88;;;4.47;;
64500;SDS011;50874;24.150;-110.320;2023-02-03T14:28:09;45.08;;;5.25;;
64500;SDS011;50874;24.150;-110.320;2023-02-03T14:31:04;40.63;;;5.57;;
64500;SDS011;50874;24.150;-110.320;2023-02-03T14:39:04;28.30;;;4.65;;
64500;SDS011;50874;24.150;-110.320;2023-02-03T14:46:55;30.80;;;4.25;;
64500;SDS011;50874;24.150;-110.320;2023-02-03T14:49:39;35.78;;;5.63;;
64500;SDS011;50874;24.150;-110.320;2023-02-03T14:52:25;32.85;;;5.07;;
64500;SDS011;50874;24.150;-110.320;2023-02-03T14:55:15;24.20;;;5.65;;
64500;SDS011;50874;24.150;-110.320;2023-02-03T14:57:53;40.53;;;5.28;;
64500;SDS011;50874;24.150;-110.320;2023-02-03T15:00:31;37.58;;;4.80;;
64500;SDS011;50874;24.150;-110.320;2023-02-03T15:05:51;30.98;;;4.88;;
64500;SDS011;50874;24.150;-110.320;2023-02-03T15:08:40;25.67;;;4.95;;
64500;SDS011;50874;24.150;-110.320;2023-02-03T15:13:51;29.80;;;5.60;;
64500;SDS011;50874;24.150;-110.320;2023-02-03T15:16:19;34.50;;;4.93;;
64500;SDS011;50874;24.150;-110.320;2023-02-03T15:18:54;30.63;;;5.43;;
64500;SDS011;50874;24.150;-110.320;2023-02-03T15:21:23;25.83;;;4.57;;
64500;SDS011;50874;24.150;-110.320;2023-02-03T15:23:50;38.05;;;5.38;;
64500;SDS011;50874;24.150;-110.320;2023-02-03T15:26:18;33.58;;;5.65;;
64500;SDS011;50874;24.150;-110.320;2023-02-03T15:31:29;31.92;;;4.28;;
64500;SDS011;50874;24.150;-110.320;2023-02-03T15:34:05;30.60;;;4.35;;
64500;SDS011;50874;24.150;-110.320;2023-02-03T15:36:45;37.53;;;5.28;;
64500;SDS011;50874;24.150;-110.320;2023-02-03T15:41:58;31.95;;;4.03;;
64500;SDS011;50874;24.150;-110.320;2023-02-03T15:46:57;19.67;;;3.83;;
64500;SDS011;50874;24.150;-110.320;2023-02-03T15:49:27;21.13;;;3.70;;
64500;SDS011;50874;24.150;-110.320;2023-02-03T15:52:05;28.08;;;5.10;;
64500;SDS011;50874;24.150;-110.320;2023-02-03T15:54:41;21.45;;;4.60;;
64500;SDS011;50874;24.150;-110.320;2023-02-03T15:57:24;19.85;;;3.72;;
64500;SDS011;50874;24.150;-110.320;2023-02-03T16:04:56;16.25;;;3.38;;
64500;SDS011;50874;24.150;-110.320;2023-02-03T16:07:23;32.47;;;4.75;;
64500;SDS011;50874;24.150;-110.320;2023-02-03T16:09:56;14.80;;;3.55;;
64500;SDS011;50874;24.150;-110.320;2023-02-03T16:12:24;14.82;;;3.65;;
64500;SDS011;50874;24.150;-110.320;2023-02-03T16:15:01;23.33;;;3.70;;
64500;SDS011;50874;24.150;-110.320;2023-02-03T16:17:30;28.92;;;3.78;;
64500;SDS011;50874;24.150;-110.320;2023-02-03T16:23:03;15.32;;;3.10;;
64500;SDS011;50874;24.150;-110.320;2023-02-03T16:25:54;20.60;;;3.90;;
64500;SDS011;50874;24.150;-110.320;2023-02-03T16:28:41;14.38;;;3.55;;
64500;SDS011;50874;24.150;-110.320;2023-02-03T16:31:26;15.88;;;3.70;;
64500;SDS011;50874;24.150;-110.320;2023-02-03T16:34:12;21.83;;;4.43;;
64500;SDS011;50874;24.150;-110.320;2023-02-03T16:36:59;24.67;;;5.03;;
64500;SDS011;50874;24.150;-110.320;2023-02-03T16:39:44;16.70;;;3.45;;
64500;SDS011;50874;24.150;-110.320;2023-02-03T16:42:38;18.63;;;3.17;;
64500;SDS011;50874;24.150;-110.320;2023-02-03T16:45:24;22.15;;;3.75;;
64500;SDS011;50874;24.150;-110.320;2023-02-03T16:48:09;19.95;;;3.67;;
64500;SDS011;50874;24.150;-110.320;2023-02-03T16:50:55;15.48;;;3.92;;
64500;SDS011;50874;24.150;-110.320;2023-02-03T16:53:35;24.60;;;4.13;;
64500;SDS011;50874;24.150;-110.320;2023-02-03T16:56:02;22.13;;;4.10;;
64500;SDS011;50874;24.150;-110.320;2023-02-03T16:58:30;19.27;;;3.78;;
64500;SDS011;50874;24.150;-110.320;2023-02-03T17:00:57;15.48;;;3.08;;
64500;SDS011;50874;24.150;-110.320;2023-02-03T17:03:27;15.48;;;3.55;;
64500;SDS011;50874;24.150;-110.320;2023-02-03T17:05:54;19.40;;;3.55;;
64500;SDS011;50874;24.150;-110.320;2023-02-03T17:08:23;23.13;;;3.78;;
64500;SDS011;50874;24.150;-110.320;2023-02-03T17:10:50;19.70;;;3.55;;
64500;SDS011;50874;24.150;-110.320;2023-02-03T17:13:20;17.45;;;3.60;;
64500;SDS011;50874;24.150;-110.320;2023-02-03T17:15:48;22.75;;;3.60;;
64500;SDS011;50874;24.150;-110.320;2023-02-03T17:18:19;20.85;;;3.72;;
64500;SDS011;50874;24.150;-110.320;2023-02-03T17:20:46;14.25;;;3.03;;